Time;durP1;ratioP1;P1;durP2;ratioP2;P2;SDS_P1;SDS_P2;PMS_P1;PMS_P2;Temp;Humidity;BMP_temperature;BMP_pressure;BME280_temperature;BME280_humidity;BME280_pressure;Samples;Min_cycle;Max_cycle;Signal;HPM_P1;HPM_P2
2021/09/26 00:01:13;;;;;;;9.93;8.85;;;17.10;99.90;;;;;;4998146;28;20136;-79
2021/09/26 00:03:40;;;;;;;11.60;9.30;;;17.20;99.90;;;;;;5000644;28;20058;-79
2021/09/26 00:06:08;;;;;;;12.00;9.00;;;17.10;99.90;;;;;;5000831;28;20501;-79
2021/09/26 00:08:35;;;;;;;15.45;8.90;;;17.10;99.90;;;;;;4999543;28;20086;-79
2021/09/26 00:11:05;;;;;;;9.70;8.63;;;17.20;99.90;;;;;;5000636;28;20112;-79
2021/09/26 00:13:32;;;;;;;10.30;8.40;;;17.10;99.90;;;;;;5000792;28;20081;-79
2021/09/26 00:15:59;;;;;;;11.30;8.82;;;17.20;99.90;;;;;;5003684;28;20093;-79
2021/09/26 00:18:29;;;;;;;10.18;8.60;;;17.10;99.90;;;;;;5002477;28;20054;-79
2021/09/26 00:20:56;;;;;;;10.20;8.15;;;17.20;99.90;;;;;;5003964;28;20432;-80
2021/09/26 00:23:25;;;;;;;9.90;8.55;;;17.10;99.90;;;;;;5001763;28;20082;-80
2021/09/26 00:25:55;;;;;;;11.80;9.05;;;17.10;99.90;;;;;;5001070;28;20092;-79
2021/09/26 00:28:24;;;;;;;9.68;8.40;;;17.20;99.90;;;;;;5001106;28;20064;-79
2021/09/26 00:30:51;;;;;;;11.63;8.95;;;17.20;99.90;;;;;;5001543;28;20180;-80
2021/09/26 00:33:18;;;;;;;10.68;9.15;;;17.20;99.90;;;;;;5001088;28;20085;-81
2021/09/26 00:35:46;;;;;;;11.60;9.05;;;17.20;99.90;;;;;;5001600;28;20081;-80
2021/09/26 00:40:44;;;;;;;13.73;8.80;;;17.20;99.90;;;;;;4953166;29;20047;-78
2021/09/26 00:43:11;;;;;;;10.75;8.50;;;17.30;99.90;;;;;;4954800;29;20142;-78
2021/09/26 00:45:38;;;;;;;9.80;8.52;;;17.30;99.90;;;;;;4954869;28;20113;-77
2021/09/26 00:48:05;;;;;;;11.00;8.95;;;17.30;99.90;;;;;;4954756;28;20134;-78
2021/09/26 00:50:34;;;;;;;10.90;8.93;;;17.20;99.90;;;;;;4956208;28;20086;-78
2021/09/26 00:53:11;;;;;;;10.52;8.70;;;17.10;99.90;;;;;;4957116;28;20106;-78
2021/09/26 00:55:54;;;;;;;11.20;9.07;;;17.10;99.90;;;;;;4957549;28;20051;-77
2021/09/26 01:01:23;;;;;;;11.27;8.82;;;17.00;99.90;;;;;;4952093;28;20107;-78
2021/09/26 01:03:55;;;;;;;11.35;8.77;;;17.00;99.90;;;;;;4954185;29;20055;-78
2021/09/26 01:06:40;;;;;;;9.85;8.77;;;17.10;99.90;;;;;;4954446;28;20047;-78
2021/09/26 01:09:16;;;;;;;10.25;8.02;;;17.00;99.90;;;;;;4954474;28;20429;-79
2021/09/26 01:11:59;;;;;;;12.52;9.25;;;17.10;99.90;;;;;;4954138;28;20525;-78
2021/09/26 01:14:29;;;;;;;13.30;8.90;;;17.00;99.90;;;;;;4954272;28;20051;-81
2021/09/26 01:17:09;;;;;;;9.65;8.27;;;17.00;99.90;;;;;;4954156;28;20074;-79
2021/09/26 01:20:14;;;;;;;11.95;8.85;;;17.00;99.90;;;;;;4954777;28;20085;-78
2021/09/26 01:23:02;;;;;;;9.52;8.52;;;17.00;99.90;;;;;;4942520;28;20097;-77
2021/09/26 01:25:51;;;;;;;10.57;9.00;;;17.00;99.90;;;;;;4953981;28;20051;-78
2021/09/26 01:28:51;;;;;;;12.27;8.95;;;17.00;99.90;;;;;;4953897;28;20078;-80
2021/09/26 01:31:27;;;;;;;12.05;8.68;;;17.00;99.90;;;;;;4954417;28;20117;-77
2021/09/26 01:34:00;;;;;;;12.85;9.20;;;17.00;99.90;;;;;;4954095;28;20047;-78
2021/09/26 01:36:32;;;;;;;12.15;8.82;;;17.10;99.90;;;;;;4953776;28;20078;-77
2021/09/26 01:39:04;;;;;;;11.07;8.77;;;17.10;99.90;;;;;;4953941;28;20498;-77
2021/09/26 01:41:34;;;;;;;12.68;8.73;;;17.10;99.90;;;;;;4954056;28;20134;-77
2021/09/26 01:44:08;;;;;;;11.55;8.60;;;17.10;99.90;;;;;;4953928;28;20074;-77
2021/09/26 01:46:40;;;;;;;10.00;8.38;;;17.10;99.90;;;;;;4953704;28;20134;-78
2021/09/26 01:49:13;;;;;;;9.93;8.45;;;17.20;99.90;;;;;;4953457;28;20059;-75
2021/09/26 01:51:43;;;;;;;11.25;9.48;;;17.20;99.90;;;;;;4954057;28;20142;-77
2021/09/26 01:54:12;;;;;;;11.00;8.65;;;17.30;99.90;;;;;;4953827;28;20126;-78
2021/09/26 01:56:42;;;;;;;9.98;8.50;;;17.20;99.90;;;;;;4953410;28;20141;-77
2021/09/26 01:59:11;;;;;;;11.45;8.88;;;17.20;99.90;;;;;;4953701;28;20421;-78
2021/09/26 02:01:41;;;;;;;9.98;8.57;;;17.20;99.90;;;;;;4953602;28;20079;-78
2021/09/26 02:04:08;;;;;;;9.77;8.73;;;17.30;99.90;;;;;;4953656;28;20180;-78
2021/09/26 02:06:36;;;;;;;11.23;8.65;;;17.20;99.90;;;;;;4953340;28;20573;-78
2021/09/26 02:09:06;;;;;;;9.52;8.52;;;17.20;99.90;;;;;;4953420;28;20490;-78
2021/09/26 02:11:34;;;;;;;11.50;8.63;;;17.30;99.90;;;;;;4953535;28;20525;-79
2021/09/26 02:14:03;;;;;;;11.63;9.02;;;17.30;99.90;;;;;;4953507;28;20130;-79
2021/09/26 02:16:30;;;;;;;9.88;8.85;;;17.40;99.90;;;;;;4953262;28;20130;-78
2021/09/26 02:18:59;;;;;;;13.15;8.93;;;17.40;99.90;;;;;;4953387;28;20130;-78
2021/09/26 02:21:27;;;;;;;9.75;8.75;;;17.40;99.90;;;;;;4953478;28;20083;-79
2021/09/26 02:23:55;;;;;;;15.52;9.18;;;17.40;99.90;;;;;;4953434;28;20477;-78
2021/09/26 02:26:22;;;;;;;12.52;9.35;;;17.50;99.90;;;;;;4953975;28;20066;-79
2021/09/26 02:28:49;;;;;;;10.98;8.95;;;17.50;99.90;;;;;;4955901;28;20082;-79
2021/09/26 02:31:17;;;;;;;12.10;9.27;;;17.60;99.90;;;;;;4953909;28;20138;-79
2021/09/26 02:33:45;;;;;;;10.68;9.38;;;17.60;99.90;;;;;;4954912;28;20119;-78
2021/09/26 02:36:15;;;;;;;11.98;9.15;;;17.60;99.90;;;;;;4954634;28;20055;-79
2021/09/26 02:38:42;;;;;;;11.68;9.10;;;17.60;99.90;;;;;;4953859;28;20051;-78
2021/09/26 02:41:15;;;;;;;9.80;8.60;;;17.60;99.90;;;;;;4954607;28;20130;-77
2021/09/26 02:43:48;;;;;;;13.77;9.32;;;17.60;99.90;;;;;;4957189;28;20134;-78
2021/09/26 02:46:23;;;;;;;12.07;9.38;;;17.60;99.90;;;;;;4957163;28;20553;-78
2021/09/26 02:48:51;;;;;;;11.55;9.48;;;17.60;99.90;;;;;;4956889;28;20150;-78
2021/09/26 02:51:19;;;;;;;14.27;9.45;;;17.60;99.90;;;;;;4956877;28;20043;-78
2021/09/26 02:53:47;;;;;;;11.27;9.98;;;17.60;99.90;;;;;;4957490;28;20114;-78
2021/09/26 02:56:15;;;;;;;12.40;9.50;;;17.60;99.90;;;;;;4957536;28;20055;-78
2021/09/26 02:58:42;;;;;;;11.40;9.30;;;17.60;99.90;;;;;;4957582;28;20404;-78
2021/09/26 03:01:09;;;;;;;9.85;8.82;;;17.70;99.90;;;;;;4957795;28;20130;-79
2021/09/26 03:03:36;;;;;;;10.55;9.23;;;17.70;99.90;;;;;;4958342;28;20134;-78
2021/09/26 03:06:03;;;;;;;10.68;9.27;;;17.70;99.90;;;;;;4956382;28;20134;-78
2021/09/26 03:08:31;;;;;;;11.27;10.07;;;17.70;99.90;;;;;;4957203;28;20087;-76
2021/09/26 03:11:01;;;;;;;13.93;9.90;;;17.70;99.90;;;;;;4958836;28;20134;-78
2021/09/26 03:13:28;;;;;;;12.50;8.95;;;17.60;99.90;;;;;;4957376;28;20139;-78
2021/09/26 03:15:55;;;;;;;11.45;9.00;;;17.60;99.90;;;;;;4957230;28;20102;-78
2021/09/26 03:18:22;;;;;;;13.18;9.98;;;17.50;99.90;;;;;;4957269;28;21515;-77
2021/09/26 03:20:50;;;;;;;15.38;10.25;;;17.50;99.90;;;;;;4957446;28;20134;-77
2021/09/26 03:23:17;;;;;;;13.52;9.98;;;17.40;99.90;;;;;;4958043;29;20059;-78
2021/09/26 03:25:45;;;;;;;11.63;10.07;;;17.40;99.90;;;;;;4957846;28;20139;-78
2021/09/26 03:28:12;;;;;;;12.73;9.85;;;17.40;99.90;;;;;;4957452;28;20472;-77
2021/09/26 03:30:39;;;;;;;11.77;10.57;;;17.40;99.90;;;;;;4957669;28;20105;-78
2021/09/26 03:33:06;;;;;;;12.27;10.73;;;17.30;99.90;;;;;;4957951;29;20130;-79
2021/09/26 03:35:34;;;;;;;14.88;10.75;;;17.30;99.90;;;;;;4959419;29;20133;-78
2021/09/26 03:38:01;;;;;;;14.43;11.07;;;17.20;99.90;;;;;;4957244;28;20146;-79
2021/09/26 03:40:28;;;;;;;22.50;11.82;;;17.10;99.90;;;;;;4956066;29;20047;-77
2021/09/26 03:42:56;;;;;;;17.48;13.15;;;17.10;99.90;;;;;;4956087;29;20126;-76
2021/09/26 03:45:24;;;;;;;21.40;13.10;;;17.10;99.90;;;;;;4955590;28;20137;-76
2021/09/26 03:47:51;;;;;;;19.58;14.10;;;17.00;99.90;;;;;;4955194;29;20467;-77
2021/09/26 03:50:18;;;;;;;16.30;13.70;;;16.80;99.90;;;;;;4955323;28;20557;-77
2021/09/26 03:52:44;;;;;;;20.80;14.27;;;16.80;99.90;;;;;;4955110;28;20459;-77
2021/09/26 03:55:13;;;;;;;17.73;14.63;;;16.70;99.90;;;;;;4955706;29;20134;-76
2021/09/26 03:57:40;;;;;;;23.65;15.43;;;16.70;99.90;;;;;;4950568;28;20047;-78
2021/09/26 04:00:11;;;;;;;18.63;15.15;;;16.70;99.90;;;;;;4954167;28;20138;-79
2021/09/26 04:02:38;;;;;;;19.98;15.73;;;16.60;99.90;;;;;;4954475;28;20083;-77
2021/09/26 04:05:06;;;;;;;23.65;16.35;;;16.50;99.90;;;;;;4954439;28;20130;-77
2021/09/26 04:07:33;;;;;;;26.02;16.65;;;16.40;99.90;;;;;;4953444;28;20138;-77
2021/09/26 04:10:00;;;;;;;21.30;16.20;;;16.30;99.90;;;;;;4954361;28;20130;-77
2021/09/26 04:12:27;;;;;;;23.08;16.30;;;16.30;99.90;;;;;;4954651;28;20562;-77
2021/09/26 04:14:54;;;;;;;21.48;16.45;;;16.30;99.90;;;;;;4953868;28;20086;-79
2021/09/26 04:17:22;;;;;;;20.70;15.90;;;16.30;99.90;;;;;;4954426;28;20134;-77
2021/09/26 04:19:49;;;;;;;16.70;14.90;;;16.30;99.90;;;;;;4942895;28;20087;-77
2021/09/26 04:22:16;;;;;;;18.38;15.18;;;16.30;99.90;;;;;;4935103;29;20126;-77
2021/09/26 04:24:43;;;;;;;17.48;14.93;;;16.30;99.90;;;;;;4935040;29;20138;-77
2021/09/26 04:27:09;;;;;;;18.73;14.60;;;16.40;99.90;;;;;;4937139;29;20138;-78
2021/09/26 04:29:36;;;;;;;18.38;14.10;;;16.40;99.90;;;;;;4954040;28;20097;-77
2021/09/26 04:32:04;;;;;;;18.48;15.13;;;16.40;99.90;;;;;;4954544;28;20130;-77
2021/09/26 04:34:33;;;;;;;17.77;15.07;;;16.50;99.90;;;;;;4953938;28;20051;-78
2021/09/26 04:37:01;;;;;;;22.23;15.93;;;16.50;99.90;;;;;;4952651;28;20129;-77
2021/09/26 04:39:28;;;;;;;18.58;15.25;;;16.60;99.90;;;;;;4953390;28;20055;-76
2021/09/26 04:41:55;;;;;;;19.27;16.73;;;16.50;99.90;;;;;;4953858;28;20043;-77
2021/09/26 04:44:22;;;;;;;19.48;16.08;;;16.60;99.90;;;;;;4953614;28;20378;-77
2021/09/26 04:46:49;;;;;;;20.30;16.00;;;16.70;99.90;;;;;;4953029;28;20485;-77
2021/09/26 04:49:16;;;;;;;21.90;16.52;;;16.80;99.90;;;;;;4953301;28;20086;-77
2021/09/26 04:51:45;;;;;;;22.40;17.63;;;16.80;99.90;;;;;;4953783;28;20134;-77
2021/09/26 04:54:11;;;;;;;20.75;18.00;;;16.80;99.90;;;;;;4953722;28;20134;-76
2021/09/26 04:56:38;;;;;;;22.90;17.65;;;16.80;99.90;;;;;;4952921;28;20085;-79
2021/09/26 04:59:05;;;;;;;22.30;18.05;;;16.80;99.90;;;;;;4953822;28;20087;-77
2021/09/26 05:01:32;;;;;;;23.73;17.30;;;16.80;99.90;;;;;;4953600;28;20051;-76
2021/09/26 05:03:59;;;;;;;22.80;19.42;;;16.80;99.90;;;;;;4952873;28;20572;-77
2021/09/26 05:06:26;;;;;;;24.90;17.77;;;16.80;99.90;;;;;;4953396;28;20522;-77
2021/09/26 05:08:54;;;;;;;29.65;19.30;;;16.80;99.90;;;;;;4953449;28;20743;-77
2021/09/26 05:11:21;;;;;;;23.20;17.88;;;16.80;99.90;;;;;;4953528;28;20130;-77
2021/09/26 05:13:48;;;;;;;22.70;18.90;;;16.90;99.90;;;;;;4953570;28;20130;-77
2021/09/26 05:16:15;;;;;;;23.00;18.42;;;16.90;99.90;;;;;;4953310;28;20134;-77
2021/09/26 05:18:42;;;;;;;21.60;18.38;;;16.80;99.90;;;;;;4953944;28;20134;-77
2021/09/26 05:21:09;;;;;;;21.30;18.30;;;16.80;99.90;;;;;;4953707;28;20134;-76
2021/09/26 05:23:36;;;;;;;24.92;19.40;;;16.80;99.90;;;;;;4953150;28;20133;-75
2021/09/26 05:26:05;;;;;;;21.35;17.88;;;16.80;99.90;;;;;;4953205;28;20142;-74
2021/09/26 05:28:32;;;;;;;22.40;18.70;;;16.80;99.90;;;;;;4952983;28;20561;-76
2021/09/26 05:31:00;;;;;;;23.65;18.98;;;16.80;99.90;;;;;;4953010;28;20138;-75
2021/09/26 05:33:28;;;;;;;20.35;17.83;;;16.80;99.90;;;;;;4953025;28;20134;-77
2021/09/26 05:35:56;;;;;;;21.13;18.25;;;16.80;99.90;;;;;;4952598;28;20560;-75
2021/09/26 05:38:22;;;;;;;23.30;17.77;;;16.90;99.90;;;;;;4952598;28;20113;-76
2021/09/26 05:40:49;;;;;;;21.15;16.98;;;16.90;99.90;;;;;;4952665;28;20139;-73
2021/09/26 05:43:18;;;;;;;19.00;16.88;;;16.80;99.90;;;;;;4952531;28;20149;-76
2021/09/26 05:45:44;;;;;;;19.15;17.02;;;16.80;99.90;;;;;;4952603;28;20134;-76
2021/09/26 05:48:11;;;;;;;23.15;16.45;;;16.80;99.90;;;;;;4953230;28;20082;-76
2021/09/26 05:50:38;;;;;;;20.25;16.70;;;16.80;99.90;;;;;;4953505;28;20142;-76
2021/09/26 05:53:05;;;;;;;19.05;16.25;;;16.80;99.90;;;;;;4953284;28;20221;-76
2021/09/26 05:55:32;;;;;;;18.05;16.15;;;16.90;99.90;;;;;;4953484;28;20137;-76
2021/09/26 05:57:59;;;;;;;18.65;16.65;;;17.00;99.90;;;;;;4953458;28;20149;-76
2021/09/26 06:00:27;;;;;;;21.27;16.77;;;17.00;99.90;;;;;;4953515;28;20138;-76
2021/09/26 06:02:54;;;;;;;18.73;16.52;;;17.10;99.90;;;;;;4953555;28;20130;-78
2021/09/26 06:05:23;;;;;;;22.80;16.90;;;17.10;99.90;;;;;;4953235;28;20508;-76
2021/09/26 06:07:50;;;;;;;21.23;16.95;;;17.10;99.90;;;;;;4953290;28;20051;-76
2021/09/26 06:10:17;;;;;;;18.38;15.90;;;17.20;99.90;;;;;;4953496;28;20083;-77
2021/09/26 06:12:44;;;;;;;17.40;15.60;;;17.20;99.90;;;;;;4953548;28;20093;-76
2021/09/26 06:15:12;;;;;;;22.63;17.30;;;17.20;99.90;;;;;;4954774;28;20420;-76
2021/09/26 06:17:40;;;;;;;20.15;17.35;;;17.10;99.90;;;;;;4957036;28;20086;-76
2021/09/26 06:20:08;;;;;;;18.65;16.65;;;17.10;99.90;;;;;;4957435;28;20094;-78
2021/09/26 06:22:35;;;;;;;21.20;17.60;;;17.10;99.90;;;;;;4957567;28;20054;-77
2021/09/26 06:25:02;;;;;;;18.65;16.05;;;17.10;99.90;;;;;;4957862;28;20138;-76
2021/09/26 07:00:54;;;;;;;15.57;12.20;;;19.80;99.90;;;;;;5110181;23;20047;-81
2021/09/26 07:03:37;;;;;;;16.85;12.25;;;20.00;99.90;;;;;;4987796;28;20047;-80
2021/09/26 07:08:44;;;;;;;14.40;12.90;;;20.30;99.90;;;;;;4986123;28;20469;-82
2021/09/26 07:11:11;;;;;;;14.98;12.93;;;20.30;99.90;;;;;;4984714;28;20157;-81
2021/09/26 07:13:38;;;;;;;14.45;12.93;;;20.30;99.90;;;;;;4984881;28;20109;-82
2021/09/26 07:16:05;;;;;;;14.77;13.20;;;20.40;99.90;;;;;;4986079;28;20081;-80
2021/09/26 07:18:32;;;;;;;14.82;13.32;;;20.50;99.90;;;;;;4984851;28;20106;-79
2021/09/26 07:20:59;;;;;;;15.88;13.45;;;20.70;99.90;;;;;;4984914;28;20078;-82
2021/09/26 07:23:26;;;;;;;14.55;13.05;;;20.90;99.90;;;;;;4986028;28;20134;-83
2021/09/26 07:25:54;;;;;;;14.00;12.50;;;21.10;99.90;;;;;;4988340;28;20063;-82
2021/09/26 07:28:21;;;;;;;14.43;12.93;;;21.20;99.90;;;;;;4989128;28;20054;-82
2021/09/26 07:30:48;;;;;;;19.00;13.73;;;21.30;99.90;;;;;;4985499;28;20058;-81
2021/09/26 07:33:15;;;;;;;18.70;12.80;;;21.50;99.90;;;;;;4985448;28;20078;-83
2021/09/26 07:35:45;;;;;;;15.15;12.95;;;21.60;99.90;;;;;;4986352;28;20054;-83
2021/09/26 07:38:12;;;;;;;13.70;12.25;;;21.70;99.90;;;;;;4983637;28;20316;-80
2021/09/26 07:40:39;;;;;;;16.33;12.45;;;22.00;99.90;;;;;;4986051;28;20078;-80
2021/09/26 07:43:07;;;;;;;16.05;11.70;;;22.30;99.90;;;;;;4987808;28;20047;-79
2021/09/26 07:45:34;;;;;;;15.50;12.10;;;22.50;99.90;;;;;;4986413;28;20082;-81
2021/09/26 07:48:01;;;;;;;14.07;12.13;;;22.70;99.90;;;;;;4984585;28;20142;-82
2021/09/26 07:50:28;;;;;;;13.73;11.65;;;22.80;99.90;;;;;;4982967;28;20082;-81
2021/09/26 07:52:55;;;;;;;12.93;11.63;;;23.10;99.90;;;;;;4984070;28;20046;-82
2021/09/26 07:55:22;;;;;;;13.68;11.60;;;23.30;99.90;;;;;;4983674;28;20058;-80
2021/09/26 07:57:49;;;;;;;13.48;12.15;;;23.40;99.90;;;;;;4982218;28;20097;-82
2021/09/26 08:00:19;;;;;;;13.70;11.57;;;23.60;99.90;;;;;;4982048;28;20078;-81
2021/09/26 08:02:46;;;;;;;12.05;10.70;;;23.70;99.90;;;;;;4985456;28;20086;-84
2021/09/26 08:05:13;;;;;;;13.25;11.63;;;23.90;99.90;;;;;;4990416;28;20074;-82
2021/09/26 08:07:40;;;;;;;14.98;11.98;;;24.00;99.90;;;;;;4990285;28;20050;-83
2021/09/26 08:10:09;;;;;;;13.32;11.25;;;24.00;99.90;;;;;;4989411;28;20078;-82
2021/09/26 08:12:37;;;;;;;12.18;10.93;;;24.20;99.90;;;;;;4988774;28;20513;-83
2021/09/26 08:15:05;;;;;;;12.63;11.32;;;24.30;99.90;;;;;;4988519;28;20185;-84
2021/09/26 08:17:34;;;;;;;14.63;10.93;;;24.40;99.90;;;;;;4987810;28;20078;-82
2021/09/26 08:20:01;;;;;;;11.65;10.45;;;24.40;99.90;;;;;;4986110;28;20081;-81
2021/09/26 08:22:28;;;;;;;11.40;9.75;;;24.50;99.90;;;;;;4984909;28;20053;-80
2021/09/26 08:24:56;;;;;;;11.80;9.98;;;24.80;99.90;;;;;;4984345;28;20062;-83
2021/09/26 08:27:24;;;;;;;12.75;9.30;;;25.00;99.90;;;;;;4984173;28;20087;-81
2021/09/26 08:29:51;;;;;;;10.32;9.18;;;25.00;99.90;;;;;;4984752;28;20078;-80
2021/09/26 08:32:18;;;;;;;11.75;9.45;;;25.10;99.90;;;;;;4983485;28;20051;-81
2021/09/26 08:34:47;;;;;;;11.98;9.82;;;25.10;99.90;;;;;;4979767;28;20138;-80
2021/09/26 08:40:05;;;;;;;11.18;8.77;;;25.30;99.90;;;;;;4958591;29;20066;-80
2021/09/26 08:42:41;;;;;;;10.48;8.73;;;25.20;99.90;;;;;;4961999;29;20062;-81
2021/09/26 08:45:12;;;;;;;10.43;9.23;;;25.10;99.90;;;;;;4962434;29;20048;-79
2021/09/26 08:47:43;;;;;;;12.50;8.63;;;25.20;99.90;;;;;;4966240;28;20047;-83
2021/09/26 08:52:41;;;;;;;10.48;8.45;;;25.10;99.90;;;;;;4993992;28;20109;-79
2021/09/26 08:55:10;;;;;;;10.90;8.57;;;25.40;99.90;;;;;;4996818;28;20081;-79
2021/09/26 08:57:42;;;;;;;9.40;8.40;;;25.40;99.90;;;;;;4998025;28;20050;-82
2021/09/26 09:00:25;;;;;;;10.38;7.75;;;25.60;99.90;;;;;;4999294;28;20078;-78
2021/09/26 09:03:15;;;;;;;9.68;7.80;;;25.80;99.90;;;;;;4997447;28;20130;-79
2021/09/26 09:05:54;;;;;;;13.68;8.13;;;25.40;99.90;;;;;;4997768;28;20058;-79
2021/09/26 09:08:27;;;;;;;10.55;7.65;;;25.30;99.90;;;;;;4997541;28;20054;-81
2021/09/26 09:10:59;;;;;;;7.95;7.07;;;25.00;99.90;;;;;;4997366;28;20050;-81
2021/09/26 09:13:39;;;;;;;7.80;7.00;;;24.80;99.90;;;;;;4997714;28;20508;-80
2021/09/26 09:16:15;;;;;;;8.02;7.10;;;24.60;99.90;;;;;;4995835;28;20154;-79
2021/09/26 09:19:02;;;;;;;9.85;7.35;;;24.40;99.90;;;;;;4995510;28;20121;-79
2021/09/26 09:21:41;;;;;;;8.50;6.95;;;24.20;99.90;;;;;;4995655;28;20120;-79
2021/09/26 09:24:24;;;;;;;10.57;7.38;;;24.10;99.90;;;;;;4995417;28;20066;-79
2021/09/26 09:26:56;;;;;;;8.52;7.00;;;24.00;99.90;;;;;;4994925;28;20046;-78
2021/09/26 09:29:34;;;;;;;10.82;6.68;;;24.00;99.90;;;;;;4997193;28;20046;-79
2021/09/26 09:32:22;;;;;;;9.38;6.78;;;24.00;99.90;;;;;;4994789;28;20627;-77
2021/09/26 09:35:33;;;;;;;8.05;6.72;;;24.00;99.90;;;;;;4993717;28;20117;-78
2021/09/26 09:38:54;;;;;;;8.23;7.13;;;24.00;99.90;;;;;;4997386;28;20054;-77
2021/09/26 09:42:08;;;;;;;9.90;6.78;;;24.00;99.90;;;;;;4993783;28;20064;-77
2021/09/26 09:45:00;;;;;;;8.85;6.25;;;24.00;99.90;;;;;;4984492;28;20046;-78
2021/09/26 09:48:07;;;;;;;10.60;6.65;;;24.00;99.90;;;;;;4994497;28;20120;-77
2021/09/26 09:50:52;;;;;;;7.78;6.72;;;24.00;99.90;;;;;;4992632;28;20130;-78
2021/09/26 09:53:45;;;;;;;8.25;6.15;;;24.00;99.90;;;;;;4994939;28;20105;-78
2021/09/26 09:56:21;;;;;;;8.93;6.95;;;24.10;99.90;;;;;;4994833;28;20129;-78
2021/09/26 10:01:37;;;;;;;9.32;5.82;;;24.30;99.90;;;;;;4987653;28;20058;-77
2021/09/26 10:04:08;;;;;;;8.38;5.60;;;24.40;99.90;;;;;;4992777;28;20074;-78
2021/09/26 10:06:41;;;;;;;8.63;5.82;;;24.30;99.90;;;;;;4992664;28;20072;-78
2021/09/26 10:09:24;;;;;;;7.50;5.78;;;24.30;99.90;;;;;;4994253;28;20054;-79
2021/09/26 10:11:56;;;;;;;7.32;5.22;;;24.40;99.90;;;;;;4993173;28;20050;-79
2021/09/26 10:14:26;;;;;;;10.82;5.97;;;24.40;99.90;;;;;;4992384;28;20054;-79
2021/09/26 10:16:55;;;;;;;7.97;5.75;;;24.40;99.90;;;;;;4993482;28;20100;-79
2021/09/26 10:19:30;;;;;;;8.95;5.90;;;24.40;99.90;;;;;;4994606;28;20050;-79
2021/09/26 10:22:04;;;;;;;7.47;5.32;;;24.40;99.90;;;;;;4993593;28;20061;-79
2021/09/26 10:24:42;;;;;;;9.02;5.53;;;24.60;99.90;;;;;;4993429;28;20051;-78
2021/09/26 10:27:11;;;;;;;7.85;5.57;;;24.70;99.90;;;;;;4993705;28;20132;-78
2021/09/26 10:29:48;;;;;;;9.10;5.35;;;24.80;99.90;;;;;;4992900;28;20105;-79
2021/09/26 10:32:41;;;;;;;8.93;5.18;;;24.80;99.90;;;;;;4992832;28;20066;-78
2021/09/26 10:35:16;;;;;;;6.20;4.88;;;24.80;99.90;;;;;;4995662;28;20061;-79
2021/09/26 10:38:01;;;;;;;8.82;5.10;;;25.00;99.90;;;;;;4995323;28;20046;-79
2021/09/26 10:40:38;;;;;;;7.75;4.75;;;25.10;99.90;;;;;;4995370;28;20172;-79
2021/09/26 10:43:22;;;;;;;6.47;4.88;;;25.20;99.90;;;;;;4996792;28;20057;-78
2021/09/26 10:46:10;;;;;;;6.15;4.82;;;25.40;99.90;;;;;;4993807;28;20109;-78
2021/09/26 10:49:15;;;;;;;8.15;5.47;;;25.50;99.90;;;;;;4991883;28;20130;-77
2021/09/26 10:51:54;;;;;;;10.98;5.10;;;25.60;99.90;;;;;;4991929;28;20054;-80
2021/09/26 10:54:33;;;;;;;6.57;4.72;;;25.50;99.90;;;;;;4993610;28;20050;-80
2021/09/26 10:57:24;;;;;;;7.43;4.70;;;25.30;99.90;;;;;;4994400;28;20050;-78
2021/09/26 10:59:56;;;;;;;6.82;5.15;;;25.20;99.90;;;;;;4994282;28;20097;-79
2021/09/26 11:02:54;;;;;;;7.80;5.10;;;25.20;99.90;;;;;;4995595;28;20093;-78
2021/09/26 11:05:48;;;;;;;7.13;4.53;;;25.30;99.90;;;;;;4997734;28;20046;-79
2021/09/26 11:08:37;;;;;;;7.82;4.95;;;25.20;99.90;;;;;;4992922;28;20544;-79
2021/09/26 11:11:46;;;;;;;6.32;4.95;;;25.10;99.90;;;;;;4997790;28;20138;-78
2021/09/26 11:22:02;;;;;;;9.63;6.05;;;24.40;99.90;;;;;;4951507;28;20064;-79
2021/09/26 11:25:12;;;;;;;7.00;4.85;;;24.40;99.90;;;;;;4998154;28;20050;-78
2021/09/26 11:27:43;;;;;;;9.63;5.03;;;24.40;99.90;;;;;;4975707;28;20505;-79
2021/09/26 11:30:38;;;;;;;8.30;5.10;;;24.30;99.90;;;;;;4978542;28;20057;-77
2021/09/26 11:36:53;;;;;;;8.27;4.47;;;24.00;99.90;;;;;;4961898;28;20174;-79
2021/09/26 11:43:49;;;;;;;7.32;4.60;;;23.80;99.90;;;;;;4941946;29;20082;-79
2021/09/26 11:50:19;;;;;;;6.97;4.47;;;23.60;99.90;;;;;;4972541;28;20085;-79
2021/09/26 12:00:21;;;;;;;8.27;4.95;;;23.60;99.90;;;;;;4891732;29;20138;-78
2021/09/26 12:03:18;;;;;;;8.50;5.45;;;23.60;99.90;;;;;;4935362;29;20178;-79
2021/09/26 12:06:41;;;;;;;;;;;;;;;;;;;;;
2021/09/26 12:16:44;;;;;;;7.18;4.45;;;23.90;99.90;;;;;;4916265;29;20048;-79
2021/09/26 12:26:26;;;;;;;6.45;4.72;;;24.10;99.90;;;;;;4876624;29;20099;-79
2021/09/26 12:29:44;;;;;;;6.93;5.00;;;24.20;99.90;;;;;;4974720;28;20050;-78
2021/09/26 12:33:07;;;;;;;;;;;;;;;;;;;;;
2021/09/26 12:39:42;;;;;;;7.10;4.85;;;23.80;99.90;;;;;;4969746;28;20129;-78
2021/09/26 12:42:35;;;;;;;8.15;5.20;;;23.70;99.90;;;;;;4979294;28;20500;-77
2021/09/26 12:45:18;;;;;;;12.15;6.47;;;23.60;99.90;;;;;;4994154;28;20043;-76
2021/09/26 12:48:07;;;;;;;8.85;5.90;;;23.60;99.90;;;;;;4994235;28;20057;-77
2021/09/26 12:50:45;;;;;;;8.07;6.38;;;23.60;99.90;;;;;;4994026;28;20080;-78
2021/09/26 12:53:42;;;;;;;8.65;5.93;;;23.60;99.90;;;;;;4994393;28;20060;-77
2021/09/26 12:56:34;;;;;;;10.45;6.20;;;23.60;99.90;;;;;;4994632;28;20050;-77
2021/09/26 13:00:00;;;;;;;11.93;7.90;;;23.50;99.90;;;;;;4994774;28;20560;-77
2021/09/26 13:02:32;;;;;;;9.60;5.65;;;23.50;99.90;;;;;;4995025;28;20108;-77
2021/09/26 13:05:34;;;;;;;8.30;5.43;;;23.60;99.90;;;;;;4994712;28;20524;-77
2021/09/26 13:08:21;;;;;;;7.40;5.25;;;23.60;99.90;;;;;;4993406;28;20133;-78
2021/09/26 13:11:08;;;;;;;9.35;5.55;;;23.70;99.90;;;;;;4993835;28;20056;-77
2021/09/26 13:14:23;;;;;;;7.57;5.72;;;23.80;99.90;;;;;;4994491;28;20057;-77
2021/09/26 13:17:25;;;;;;;10.27;5.20;;;23.80;99.90;;;;;;4994974;28;20046;-78
2021/09/26 13:20:34;;;;;;;8.27;6.30;;;23.90;99.90;;;;;;4995916;28;20145;-78
2021/09/26 13:23:25;;;;;;;7.32;5.53;;;24.00;99.90;;;;;;4994897;28;20057;-77
2021/09/26 13:26:01;;;;;;;7.35;5.70;;;24.00;99.90;;;;;;4996214;28;20050;-76
2021/09/26 13:28:56;;;;;;;8.48;5.30;;;24.00;99.90;;;;;;4997901;28;20054;-77
2021/09/26 13:31:57;;;;;;;9.93;6.78;;;24.00;99.90;;;;;;4997464;28;20355;-76
2021/09/26 13:35:02;;;;;;;14.43;7.10;;;23.90;99.90;;;;;;4994850;28;20142;-77
2021/09/26 13:37:44;;;;;;;11.90;9.70;;;23.80;99.90;;;;;;4994133;28;20066;-79
2021/09/26 13:40:42;;;;;;;19.85;15.02;;;23.70;99.90;;;;;;4992800;28;20073;-77
2021/09/26 13:44:00;;;;;;;8.98;6.60;;;23.60;99.90;;;;;;4993408;28;20050;-76
2021/09/26 13:46:41;;;;;;;11.15;7.22;;;23.40;99.90;;;;;;4995487;28;20058;-77
2021/09/26 13:49:36;;;;;;;16.42;12.18;;;23.40;99.90;;;;;;4995127;28;20570;-78
2021/09/26 13:52:54;;;;;;;13.13;11.35;;;23.30;99.90;;;;;;4993539;28;20193;-76
2021/09/26 13:59:03;;;;;;;13.57;9.23;;;23.30;99.90;;;;;;4994267;28;20057;-77
2021/09/26 14:02:04;;;;;;;11.27;9.00;;;23.20;99.90;;;;;;4993420;28;20125;-77
2021/09/26 14:04:54;;;;;;;9.60;5.93;;;23.30;99.90;;;;;;4993720;28;20057;-76
2021/09/26 14:07:53;;;;;;;9.60;6.85;;;23.30;99.90;;;;;;4992869;28;20437;-76
2021/09/26 14:21:06;;;;;;;7.30;5.88;;;23.50;99.90;;;;;;4988428;28;20054;-77
2021/09/26 14:24:24;;;;;;;9.02;6.53;;;23.50;99.90;;;;;;4992383;28;20054;-78
2021/09/26 14:26:55;;;;;;;8.82;6.43;;;23.40;99.90;;;;;;4993036;28;20118;-76
2021/09/26 14:29:47;;;;;;;9.45;7.50;;;23.40;99.90;;;;;;4993226;28;20207;-76
2021/09/26 14:32:41;;;;;;;6.43;5.75;;;23.40;99.90;;;;;;4992829;28;20132;-76
2021/09/26 14:39:09;;;;;;;9.70;6.30;;;23.50;99.90;;;;;;4996560;28;20560;-75
2021/09/26 14:42:12;;;;;;;8.23;6.78;;;23.30;99.90;;;;;;4997072;28;20050;-74
2021/09/26 14:44:55;;;;;;;10.90;6.93;;;23.30;99.90;;;;;;4997556;28;20042;-74
2021/09/26 14:47:26;;;;;;;8.43;7.25;;;23.30;99.90;;;;;;4996484;28;20158;-76
2021/09/26 14:50:22;;;;;;;12.10;6.95;;;23.10;99.90;;;;;;4995788;28;20065;-75
2021/09/26 14:52:56;;;;;;;9.13;7.20;;;23.10;99.90;;;;;;4996574;28;20054;-77
2021/09/26 14:55:31;;;;;;;8.70;7.03;;;23.00;99.90;;;;;;4995758;28;20047;-75
2021/09/26 14:58:13;;;;;;;10.27;7.88;;;22.80;99.90;;;;;;4995927;28;20417;-75
2021/09/26 15:00:50;;;;;;;8.55;7.38;;;22.80;99.90;;;;;;4995716;28;20132;-76
2021/09/26 15:03:23;;;;;;;8.73;7.82;;;22.70;99.90;;;;;;4996459;28;20065;-78
2021/09/26 15:06:08;;;;;;;12.90;7.88;;;22.60;99.90;;;;;;4995276;28;20477;-77
2021/09/26 15:09:13;;;;;;;10.45;8.60;;;22.50;99.90;;;;;;4995531;28;20579;-77
2021/09/26 15:17:42;;;;;;;;;;;;;;;;;;;;;
2021/09/26 15:20:19;;;;;;;10.50;9.40;;;22.30;99.90;;;;;;4996109;28;20054;-77
2021/09/26 15:23:02;;;;;;;15.88;10.20;;;22.20;99.90;;;;;;4996117;28;20058;-78